AUA71RD LOWW-LQSA
Flight info
| Callsign | AUA71RD |
|---|---|
| Flight time | 0h 41m |
| Altitude | 29000 |
| Route | STEIN3C/29 STEIN DCT NOHAT DCT KOPRY DCT LURID DCT BOSNA BOSN1G |
| Aircraft | A320/M-SDE3FGHIRWY/LB1 |
Departure
| Time | 2026-04-26 18:19 |
|---|---|
| Airport | Vienna International Airport (LOWW) |
Arrival
| Time | 2026-04-26 19:01 |
|---|---|
| Airport | Sarajevo International Airport (LQSA) |
| Time | Latitude | Longitude | Altitude | Speed | Heading |
|---|---|---|---|---|---|
| 2026-04-26 17:46 | 48.11897 | 16.56767 | 617 ft | 0 kts | 206° |
| 2026-04-26 17:46 | 48.11915 | 16.56713 | 618 ft | 0 kts | 206° |
| 2026-04-26 18:10 | 48.11935 | 16.56728 | 622 ft | 4 kts | 203° |
| 2026-04-26 18:10 | 48.11960 | 16.56742 | 617 ft | 4 kts | 189° |
| 2026-04-26 18:10 | 48.11983 | 16.56740 | 626 ft | 4 kts | 135° |
| 2026-04-26 18:11 | 48.11988 | 16.56733 | 626 ft | 0 kts | 116° |
| 2026-04-26 18:13 | 48.11948 | 16.56857 | 611 ft | 25 kts | 116° |
| 2026-04-26 18:13 | 48.11869 | 16.57096 | 620 ft | 25 kts | 116° |
| 2026-04-26 18:13 | 48.11822 | 16.57316 | 614 ft | 22 kts | 124° |
| 2026-04-26 18:13 | 48.11733 | 16.57378 | 612 ft | 21 kts | 166° |
| 2026-04-26 18:14 | 48.11533 | 16.57459 | 617 ft | 23 kts | 172° |
| 2026-04-26 18:14 | 48.11396 | 16.57391 | 617 ft | 15 kts | 205° |
| 2026-04-26 18:14 | 48.11360 | 16.57366 | 610 ft | 0 kts | 205° |
| 2026-04-26 18:15 | 48.11357 | 16.57364 | 610 ft | 3 kts | 205° |
| 2026-04-26 18:15 | 48.11269 | 16.57298 | 618 ft | 19 kts | 207° |
| 2026-04-26 18:15 | 48.11182 | 16.57351 | 616 ft | 15 kts | 117° |
| 2026-04-26 18:15 | 48.11142 | 16.57480 | 619 ft | 13 kts | 116° |
| 2026-04-26 18:16 | 48.11106 | 16.57592 | 613 ft | 11 kts | 116° |
| 2026-04-26 18:16 | 48.11018 | 16.57628 | 617 ft | 0 kts | 207° |
| 2026-04-26 18:17 | 48.10977 | 16.57598 | 618 ft | 18 kts | 205° |
| 2026-04-26 18:17 | 48.10940 | 16.57456 | 622 ft | 13 kts | 292° |
| 2026-04-26 18:17 | 48.10947 | 16.57432 | 622 ft | 0 kts | 295° |
| 2026-04-26 18:18 | 48.11023 | 16.57199 | 613 ft | 63 kts | 296° |
| 2026-04-26 18:19 | 48.11320 | 16.56291 | 614 ft | 128 kts | 296° |
| 2026-04-26 18:19 | 48.11786 | 16.54892 | 822 ft | 159 kts | 300° |
| 2026-04-26 18:19 | 48.12144 | 16.53317 | 1524 ft | 166 kts | 271° |
| 2026-04-26 18:19 | 48.11693 | 16.51691 | 2095 ft | 185 kts | 226° |
| 2026-04-26 18:20 | 48.10630 | 16.50393 | 2513 ft | 210 kts | 219° |
| 2026-04-26 18:20 | 48.09389 | 16.49005 | 3055 ft | 235 kts | 218° |
| 2026-04-26 18:20 | 48.07932 | 16.47641 | 3686 ft | 262 kts | 200° |
| 2026-04-26 18:20 | 48.06711 | 16.47350 | 4187 ft | 275 kts | 178° |
| 2026-04-26 18:21 | 48.04124 | 16.47802 | 5532 ft | 284 kts | 175° |
| 2026-04-26 18:21 | 48.02149 | 16.48189 | 6602 ft | 288 kts | 177° |
| 2026-04-26 18:21 | 48.00145 | 16.48579 | 7604 ft | 293 kts | 177° |
| 2026-04-26 18:21 | 47.98107 | 16.48790 | 8589 ft | 294 kts | 188° |
| 2026-04-26 18:22 | 47.96101 | 16.48277 | 9584 ft | 293 kts | 202° |
| 2026-04-26 18:22 | 47.94234 | 16.47067 | 10463 ft | 298 kts | 212° |
| 2026-04-26 18:22 | 47.92323 | 16.45571 | 10891 ft | 322 kts | 212° |
| 2026-04-26 18:22 | 47.90189 | 16.44176 | 11268 ft | 351 kts | 202° |
| 2026-04-26 18:23 | 47.87755 | 16.43430 | 11800 ft | 372 kts | 188° |
| 2026-04-26 18:23 | 47.85130 | 16.43500 | 12627 ft | 384 kts | 175° |
| 2026-04-26 18:23 | 47.82495 | 16.44373 | 13517 ft | 392 kts | 167° |
| 2026-04-26 18:23 | 47.79843 | 16.45430 | 14406 ft | 397 kts | 167° |
| 2026-04-26 18:24 | 47.77155 | 16.46498 | 15259 ft | 402 kts | 167° |
| 2026-04-26 18:24 | 47.74436 | 16.47576 | 16142 ft | 407 kts | 167° |
| 2026-04-26 18:24 | 47.71688 | 16.48663 | 17034 ft | 411 kts | 167° |
| 2026-04-26 18:24 | 47.68910 | 16.49758 | 17883 ft | 415 kts | 167° |
| 2026-04-26 18:25 | 47.66103 | 16.50859 | 18689 ft | 419 kts | 167° |
| 2026-04-26 18:25 | 47.63269 | 16.51968 | 19385 ft | 423 kts | 167° |
| 2026-04-26 18:25 | 47.60414 | 16.53082 | 20072 ft | 426 kts | 167° |
| 2026-04-26 18:25 | 47.57538 | 16.54200 | 20724 ft | 429 kts | 167° |
| 2026-04-26 18:26 | 47.54647 | 16.55324 | 21331 ft | 432 kts | 167° |
| 2026-04-26 18:26 | 47.51733 | 16.56463 | 21916 ft | 435 kts | 167° |
| 2026-04-26 18:26 | 47.48800 | 16.57610 | 22469 ft | 437 kts | 167° |
| 2026-04-26 18:26 | 47.45851 | 16.58763 | 22989 ft | 440 kts | 167° |
| 2026-04-26 18:27 | 47.42845 | 16.59771 | 23197 ft | 447 kts | 174° |
| 2026-04-26 18:27 | 47.39729 | 16.60208 | 23405 ft | 451 kts | 177° |
| 2026-04-26 18:27 | 47.36650 | 16.60826 | 24213 ft | 445 kts | 173° |
| 2026-04-26 18:27 | 47.33611 | 16.61717 | 24686 ft | 446 kts | 170° |
| 2026-04-26 18:28 | 47.30585 | 16.62779 | 25070 ft | 448 kts | 168° |
| 2026-04-26 18:28 | 47.27534 | 16.63913 | 25214 ft | 456 kts | 168° |
| 2026-04-26 18:28 | 47.24420 | 16.65053 | 25244 ft | 466 kts | 169° |
| 2026-04-26 18:28 | 47.21234 | 16.66160 | 25226 ft | 475 kts | 169° |
| 2026-04-26 18:29 | 47.17995 | 16.67221 | 25241 ft | 481 kts | 170° |
| 2026-04-26 18:29 | 47.14698 | 16.68250 | 25238 ft | 487 kts | 171° |
| 2026-04-26 18:29 | 47.11364 | 16.69271 | 25239 ft | 492 kts | 171° |
| 2026-04-26 18:29 | 47.07999 | 16.70298 | 25235 ft | 496 kts | 171° |
| 2026-04-26 18:30 | 47.04614 | 16.71341 | 25236 ft | 498 kts | 171° |
| 2026-04-26 18:30 | 47.01215 | 16.72401 | 25236 ft | 500 kts | 170° |
| 2026-04-26 18:30 | 46.97804 | 16.73474 | 25224 ft | 501 kts | 170° |
| 2026-04-26 18:30 | 46.94402 | 16.74550 | 25479 ft | 494 kts | 170° |
| 2026-04-26 18:31 | 46.91113 | 16.75591 | 26495 ft | 475 kts | 170° |
| 2026-04-26 18:31 | 46.87908 | 16.76597 | 27213 ft | 469 kts | 171° |
| 2026-04-26 18:31 | 46.84720 | 16.77588 | 27607 ft | 469 kts | 171° |
| 2026-04-26 18:31 | 46.81523 | 16.78575 | 27937 ft | 470 kts | 171° |
| 2026-04-26 18:32 | 46.78313 | 16.79566 | 28226 ft | 473 kts | 171° |
| 2026-04-26 18:32 | 46.75088 | 16.80562 | 28485 ft | 475 kts | 170° |
| 2026-04-26 18:32 | 46.71845 | 16.81565 | 28727 ft | 478 kts | 170° |
| 2026-04-26 18:32 | 46.68589 | 16.82574 | 28982 ft | 480 kts | 170° |
| 2026-04-26 18:33 | 46.65316 | 16.83586 | 29200 ft | 482 kts | 171° |
| 2026-04-26 18:33 | 46.62037 | 16.84599 | 29235 ft | 482 kts | 170° |
| 2026-04-26 18:33 | 46.55445 | 16.86642 | 29232 ft | 489 kts | 170° |
| 2026-04-26 18:34 | 46.48739 | 16.88720 | 29221 ft | 495 kts | 170° |
| 2026-04-26 18:34 | 46.41972 | 16.90797 | 29220 ft | 498 kts | 170° |
| 2026-04-26 18:35 | 46.35177 | 16.92869 | 29229 ft | 500 kts | 170° |
| 2026-04-26 18:35 | 46.28385 | 16.94934 | 29222 ft | 497 kts | 170° |
| 2026-04-26 18:36 | 46.21675 | 16.97054 | 29220 ft | 497 kts | 168° |
| 2026-04-26 18:36 | 46.14999 | 16.99683 | 29223 ft | 497 kts | 166° |
| 2026-04-26 18:37 | 46.08368 | 17.02535 | 29200 ft | 497 kts | 165° |
| 2026-04-26 18:37 | 46.01732 | 17.05298 | 29206 ft | 496 kts | 166° |
| 2026-04-26 18:38 | 45.95043 | 17.07951 | 29204 ft | 495 kts | 167° |
| 2026-04-26 18:38 | 45.88435 | 17.10538 | 29187 ft | 495 kts | 166° |
| 2026-04-26 18:39 | 45.81798 | 17.13171 | 29185 ft | 495 kts | 166° |
| 2026-04-26 18:39 | 45.75168 | 17.15814 | 29189 ft | 494 kts | 166° |
| 2026-04-26 18:40 | 45.68586 | 17.18426 | 29004 ft | 485 kts | 166° |
| 2026-04-26 18:40 | 45.65331 | 17.19709 | 28725 ft | 485 kts | 166° |
| 2026-04-26 18:40 | 45.62077 | 17.20982 | 28450 ft | 484 kts | 166° |
| 2026-04-26 18:41 | 45.58828 | 17.22249 | 28181 ft | 483 kts | 166° |
| 2026-04-26 18:41 | 45.55594 | 17.23512 | 27913 ft | 481 kts | 166° |
| 2026-04-26 18:41 | 45.52371 | 17.24775 | 27516 ft | 481 kts | 166° |
| 2026-04-26 18:41 | 45.49150 | 17.26043 | 27124 ft | 481 kts | 166° |
| 2026-04-26 18:42 | 45.45928 | 17.27313 | 26740 ft | 479 kts | 166° |
| 2026-04-26 18:42 | 45.42718 | 17.28574 | 26356 ft | 477 kts | 166° |
| 2026-04-26 18:42 | 45.39525 | 17.29829 | 25984 ft | 475 kts | 166° |
| 2026-04-26 18:42 | 45.36347 | 17.31077 | 25622 ft | 473 kts | 166° |
| 2026-04-26 18:43 | 45.33180 | 17.32314 | 25258 ft | 471 kts | 166° |
| 2026-04-26 18:43 | 45.30025 | 17.33538 | 24889 ft | 469 kts | 166° |
| 2026-04-26 18:43 | 45.26831 | 17.34773 | 24537 ft | 481 kts | 166° |
| 2026-04-26 18:43 | 45.23586 | 17.36028 | 24188 ft | 486 kts | 166° |
| 2026-04-26 18:44 | 45.20312 | 17.37296 | 23840 ft | 489 kts | 166° |
| 2026-04-26 18:44 | 45.17034 | 17.38568 | 23444 ft | 488 kts | 165° |
| 2026-04-26 18:44 | 45.13768 | 17.39834 | 22953 ft | 485 kts | 165° |
| 2026-04-26 18:44 | 45.10539 | 17.41174 | 22472 ft | 482 kts | 163° |
| 2026-04-26 18:45 | 45.07360 | 17.42639 | 22004 ft | 479 kts | 162° |
| 2026-04-26 18:45 | 45.04223 | 17.44185 | 21544 ft | 476 kts | 161° |
| 2026-04-26 18:45 | 45.01114 | 17.45751 | 21129 ft | 473 kts | 160° |
| 2026-04-26 18:45 | 44.98032 | 17.47291 | 20754 ft | 469 kts | 161° |
| 2026-04-26 18:46 | 44.94956 | 17.48797 | 20377 ft | 467 kts | 161° |
| 2026-04-26 18:46 | 44.91885 | 17.50269 | 20009 ft | 464 kts | 161° |
| 2026-04-26 18:46 | 44.88836 | 17.51711 | 19650 ft | 462 kts | 161° |
| 2026-04-26 18:46 | 44.85792 | 17.53142 | 19300 ft | 460 kts | 161° |
| 2026-04-26 18:47 | 44.82762 | 17.54562 | 18934 ft | 458 kts | 161° |
| 2026-04-26 18:47 | 44.79786 | 17.55958 | 18580 ft | 456 kts | 161° |
| 2026-04-26 18:47 | 44.76788 | 17.57364 | 18200 ft | 453 kts | 161° |
| 2026-04-26 18:47 | 44.73808 | 17.58764 | 17799 ft | 450 kts | 161° |
| 2026-04-26 18:48 | 44.70846 | 17.60164 | 17377 ft | 448 kts | 161° |
| 2026-04-26 18:48 | 44.67902 | 17.61556 | 16953 ft | 445 kts | 161° |
| 2026-04-26 18:48 | 44.64974 | 17.62937 | 16554 ft | 443 kts | 161° |
| 2026-04-26 18:48 | 44.62058 | 17.64307 | 16153 ft | 441 kts | 161° |
| 2026-04-26 18:49 | 44.59150 | 17.65667 | 15755 ft | 440 kts | 161° |
| 2026-04-26 18:49 | 44.56263 | 17.67015 | 15359 ft | 437 kts | 161° |
| 2026-04-26 18:49 | 44.53383 | 17.68359 | 14966 ft | 435 kts | 161° |
| 2026-04-26 18:49 | 44.50520 | 17.69697 | 14583 ft | 433 kts | 161° |
| 2026-04-26 18:50 | 44.47677 | 17.71026 | 14202 ft | 430 kts | 161° |
| 2026-04-26 18:50 | 44.44843 | 17.72350 | 13806 ft | 428 kts | 162° |
| 2026-04-26 18:50 | 44.42934 | 17.73240 | 13517 ft | 427 kts | 162° |
| 2026-04-26 18:50 | 44.40123 | 17.74549 | 13095 ft | 424 kts | 162° |
| 2026-04-26 18:51 | 44.37376 | 17.75867 | 12682 ft | 422 kts | 158° |
| 2026-04-26 18:51 | 44.34746 | 17.77632 | 12272 ft | 418 kts | 153° |
| 2026-04-26 18:51 | 44.32170 | 17.79493 | 11866 ft | 415 kts | 153° |
| 2026-04-26 18:51 | 44.29611 | 17.81339 | 11479 ft | 413 kts | 153° |
| 2026-04-26 18:52 | 44.27059 | 17.83174 | 11079 ft | 412 kts | 153° |
| 2026-04-26 18:52 | 44.24524 | 17.84998 | 10683 ft | 410 kts | 153° |
| 2026-04-26 18:52 | 44.21989 | 17.86821 | 10297 ft | 408 kts | 153° |
| 2026-04-26 18:52 | 44.19476 | 17.88626 | 9898 ft | 406 kts | 153° |
| 2026-04-26 18:53 | 44.16971 | 17.90423 | 9485 ft | 403 kts | 153° |
| 2026-04-26 18:53 | 44.14486 | 17.92205 | 9065 ft | 399 kts | 152° |
| 2026-04-26 18:53 | 44.12057 | 17.93944 | 8647 ft | 386 kts | 152° |
| 2026-04-26 18:53 | 44.09715 | 17.95621 | 8243 ft | 372 kts | 152° |
| 2026-04-26 18:54 | 44.07455 | 17.97237 | 7842 ft | 359 kts | 152° |
| 2026-04-26 18:54 | 44.05268 | 17.98798 | 7445 ft | 348 kts | 152° |
| 2026-04-26 18:54 | 44.03146 | 18.00312 | 7055 ft | 336 kts | 152° |
| 2026-04-26 18:54 | 44.01078 | 18.01565 | 6651 ft | 314 kts | 161° |
| 2026-04-26 18:55 | 43.99062 | 18.02508 | 6192 ft | 298 kts | 160° |
| 2026-04-26 18:55 | 43.97155 | 18.03404 | 5735 ft | 283 kts | 160° |
| 2026-04-26 18:55 | 43.95332 | 18.04263 | 5289 ft | 271 kts | 159° |
| 2026-04-26 18:55 | 43.93671 | 18.05281 | 5023 ft | 249 kts | 144° |
| 2026-04-26 18:56 | 43.92421 | 18.06815 | 5008 ft | 235 kts | 126° |
| 2026-04-26 18:56 | 43.91563 | 18.08708 | 5007 ft | 228 kts | 115° |
| 2026-04-26 18:56 | 43.90860 | 18.10603 | 5008 ft | 214 kts | 113° |
| 2026-04-26 18:56 | 43.90199 | 18.12387 | 4896 ft | 203 kts | 115° |
| 2026-04-26 18:57 | 43.89571 | 18.14077 | 4621 ft | 191 kts | 115° |
| 2026-04-26 18:57 | 43.89176 | 18.15140 | 4449 ft | 183 kts | 116° |
| 2026-04-26 18:57 | 43.88428 | 18.17150 | 4144 ft | 165 kts | 115° |
| 2026-04-26 18:57 | 43.87923 | 18.18507 | 3914 ft | 153 kts | 116° |
| 2026-04-26 18:58 | 43.87442 | 18.19798 | 3696 ft | 149 kts | 115° |
| 2026-04-26 18:58 | 43.86973 | 18.21056 | 3477 ft | 145 kts | 115° |
| 2026-04-26 18:58 | 43.86510 | 18.22298 | 3268 ft | 144 kts | 115° |
| 2026-04-26 18:58 | 43.86056 | 18.23516 | 3070 ft | 143 kts | 115° |
| 2026-04-26 18:59 | 43.85601 | 18.24735 | 2863 ft | 142 kts | 116° |
| 2026-04-26 18:59 | 43.85151 | 18.25942 | 2670 ft | 141 kts | 116° |
| 2026-04-26 18:59 | 43.84703 | 18.27141 | 2466 ft | 140 kts | 116° |
| 2026-04-26 18:59 | 43.84255 | 18.28340 | 2271 ft | 140 kts | 116° |
| 2026-04-26 19:00 | 43.83808 | 18.29536 | 2075 ft | 140 kts | 117° |
| 2026-04-26 19:00 | 43.83361 | 18.30730 | 1879 ft | 140 kts | 117° |
| 2026-04-26 19:00 | 43.82921 | 18.31912 | 1688 ft | 140 kts | 117° |
| 2026-04-26 19:00 | 43.82528 | 18.32964 | 1681 ft | 93 kts | 117° |
| 2026-04-26 19:01 | 43.82333 | 18.33478 | 1693 ft | 41 kts | 117° |
| 2026-04-26 19:01 | 43.82290 | 18.33671 | 1699 ft | 11 kts | 38° |
| 2026-04-26 19:01 | 43.82385 | 18.33656 | 1689 ft | 18 kts | 345° |
| 2026-04-26 19:01 | 43.82470 | 18.33591 | 1689 ft | 12 kts | 301° |
| 2026-04-26 19:02 | 43.82485 | 18.33556 | 1691 ft | 0 kts | 299° |
| 2026-04-26 19:02 | 43.82490 | 18.33556 | 1686 ft | 2 kts | 346° |
| 2026-04-26 19:02 | 43.82511 | 18.33605 | 1686 ft | 6 kts | 42° |
| 2026-04-26 19:02 | 43.82529 | 18.33618 | 1686 ft | 3 kts | 25° |
| 2026-04-26 19:03 | 43.82537 | 18.33623 | 1686 ft | 0 kts | 27° |